Time;durP1;ratioP1;P1;durP2;ratioP2;P2;SDS_P1;SDS_P2;PMS_P1;PMS_P2;Temp;Humidity;BMP_temperature;BMP_pressure;BME280_temperature;BME280_humidity;BME280_pressure;Samples;Min_cycle;Max_cycle;Signal;HPM_P1;HPM_P2
2024/04/04 00:01:01;;;;;;;13.60;1.30;;;9.80;99.90;;;;;;5000090;28;20702;-81
2024/04/04 00:03:28;;;;;;;20.25;1.98;;;9.70;99.90;;;;;;5017471;28;20162;-81
2024/04/04 00:05:54;;;;;;;14.23;1.15;;;9.70;99.90;;;;;;4999195;28;20509;-81
2024/04/04 00:08:20;;;;;;;14.35;1.27;;;9.60;99.90;;;;;;5017424;28;20552;-80
2024/04/04 00:10:45;;;;;;;14.50;1.90;;;9.60;99.90;;;;;;5017118;28;20175;-80
2024/04/04 00:13:11;;;;;;;12.90;1.30;;;9.60;99.90;;;;;;4999881;28;20222;-81
2024/04/04 00:15:41;;;;;;;12.87;1.07;;;9.60;99.90;;;;;;5017431;28;20258;-80
2024/04/04 00:18:07;;;;;;;12.75;1.05;;;9.70;99.90;;;;;;5017523;28;20189;-81
2024/04/04 00:20:39;;;;;;;14.40;1.27;;;9.70;99.90;;;;;;5018014;28;20531;-81
2024/04/04 00:23:05;;;;;;;14.00;1.77;;;9.60;99.90;;;;;;5016676;28;20559;-81
2024/04/04 00:25:34;;;;;;;13.27;1.43;;;9.60;99.90;;;;;;5002597;28;20197;-79
2024/04/04 00:27:59;;;;;;;12.65;1.30;;;9.50;99.90;;;;;;5024585;28;20182;-80
2024/04/04 00:30:25;;;;;;;12.93;1.33;;;9.50;99.90;;;;;;5024826;28;20229;-80
2024/04/04 00:32:53;;;;;;;13.30;1.60;;;9.50;99.90;;;;;;5023850;28;20283;-79
2024/04/04 00:35:20;;;;;;;18.13;1.70;;;9.50;99.90;;;;;;5024173;28;20171;-81
2024/04/04 00:37:47;;;;;;;15.15;2.08;;;9.60;99.90;;;;;;5006005;28;20174;-80
2024/04/04 00:40:13;;;;;;;13.23;1.52;;;9.60;99.90;;;;;;5006945;28;20171;-80
2024/04/04 00:42:39;;;;;;;15.65;1.60;;;9.70;99.90;;;;;;5024034;28;20191;-80
2024/04/04 00:45:06;;;;;;;15.70;2.23;;;9.70;99.90;;;;;;5006774;28;20170;-80
2024/04/04 00:47:32;;;;;;;19.85;1.75;;;9.80;99.90;;;;;;5022735;28;20190;-80
2024/04/04 00:49:57;;;;;;;20.25;1.80;;;9.80;99.90;;;;;;5024186;28;20190;-81
2024/04/04 00:52:23;;;;;;;13.80;1.40;;;9.80;99.90;;;;;;5001823;28;20217;-81
2024/04/04 00:54:50;;;;;;;15.83;1.97;;;9.80;99.90;;;;;;5000220;28;20254;-81
2024/04/04 00:57:16;;;;;;;14.35;1.42;;;9.80;99.90;;;;;;5017379;28;20726;-81
2024/04/04 00:59:42;;;;;;;12.43;1.13;;;9.80;99.90;;;;;;5016820;28;20170;-81
2024/04/04 01:02:07;;;;;;;13.80;1.60;;;9.90;99.90;;;;;;5017315;28;20197;-81
2024/04/04 01:04:33;;;;;;;13.73;1.50;;;9.90;99.90;;;;;;5017382;28;20480;-81
2024/04/04 01:06:59;;;;;;;23.43;1.80;;;9.90;99.90;;;;;;5016212;28;20183;-81
2024/04/04 01:09:24;;;;;;;15.20;1.47;;;10.00;99.90;;;;;;5017271;28;20170;-81
2024/04/04 01:11:50;;;;;;;12.50;1.17;;;10.00;99.90;;;;;;5016401;28;20472;-81
2024/04/04 01:14:16;;;;;;;16.53;1.60;;;10.00;99.90;;;;;;5016726;28;20162;-81
2024/04/04 01:16:41;;;;;;;12.77;1.20;;;10.10;99.90;;;;;;5016598;28;20733;-81
2024/04/04 01:19:07;;;;;;;15.07;1.23;;;10.00;99.90;;;;;;5016123;28;20245;-81
2024/04/04 01:21:33;;;;;;;13.57;1.27;;;10.10;99.90;;;;;;4998569;28;20217;-81
2024/04/04 01:23:58;;;;;;;13.83;1.10;;;10.10;99.90;;;;;;5016206;28;20272;-81
2024/04/04 01:26:24;;;;;;;14.33;1.40;;;10.10;99.90;;;;;;5016243;28;20173;-81
2024/04/04 01:28:49;;;;;;;16.50;1.17;;;10.10;99.90;;;;;;5015790;28;20699;-81
2024/04/04 01:31:15;;;;;;;13.20;0.97;;;10.10;99.90;;;;;;5016195;28;20201;-81
2024/04/04 01:33:41;;;;;;;13.43;1.13;;;10.10;99.90;;;;;;5016167;28;20228;-81
2024/04/04 01:36:07;;;;;;;13.07;1.20;;;10.20;99.90;;;;;;5015903;28;20250;-81
2024/04/04 01:38:32;;;;;;;16.83;1.83;;;10.10;99.90;;;;;;5016170;28;20631;-81
2024/04/04 01:40:58;;;;;;;14.50;1.30;;;10.10;99.90;;;;;;5015836;28;20178;-81
2024/04/04 01:43:24;;;;;;;13.50;1.13;;;10.10;99.90;;;;;;5016172;28;20174;-81
2024/04/04 01:45:49;;;;;;;12.80;1.10;;;10.20;99.90;;;;;;5015812;28;20194;-81
2024/04/04 01:48:15;;;;;;;12.27;1.10;;;10.20;99.90;;;;;;5015632;28;20191;-81
2024/04/04 01:50:40;;;;;;;13.53;1.70;;;10.20;99.90;;;;;;5016491;28;20173;-81
2024/04/04 01:53:06;;;;;;;17.43;1.20;;;10.20;99.90;;;;;;4998741;28;20692;-81
2024/04/04 01:55:33;;;;;;;12.70;1.10;;;10.20;99.90;;;;;;5015892;28;20169;-80
2024/04/04 01:57:59;;;;;;;12.25;1.15;;;10.30;99.90;;;;;;4998485;28;20922;-81
2024/04/04 02:00:26;;;;;;;13.75;1.17;;;10.30;99.90;;;;;;4997997;28;20176;-81
2024/04/04 02:02:55;;;;;;;16.15;1.55;;;10.30;99.90;;;;;;4997894;28;20194;-81
2024/04/04 02:05:21;;;;;;;13.52;1.50;;;10.20;99.90;;;;;;5015571;28;20175;-81
2024/04/04 02:07:46;;;;;;;12.70;1.27;;;10.20;99.90;;;;;;5015684;28;20194;-81
2024/04/04 02:10:12;;;;;;;12.97;1.57;;;10.20;99.90;;;;;;5016128;28;20254;-81
2024/04/04 02:12:38;;;;;;;12.10;1.17;;;10.20;99.90;;;;;;5015734;28;20189;-81
2024/04/04 02:15:04;;;;;;;13.70;1.00;;;10.20;99.90;;;;;;5015941;28;20213;-81
2024/04/04 02:17:30;;;;;;;12.70;1.27;;;10.20;99.90;;;;;;5016117;28;20436;-81
2024/04/04 02:19:56;;;;;;;15.32;1.75;;;10.20;99.90;;;;;;5019674;28;20628;-81
2024/04/04 02:22:22;;;;;;;13.53;1.77;;;10.20;99.90;;;;;;5001817;28;20229;-81
2024/04/04 02:24:48;;;;;;;12.20;1.00;;;10.20;99.90;;;;;;5019272;28;20509;-81
2024/04/04 02:27:13;;;;;;;14.43;1.40;;;10.20;99.90;;;;;;5019288;28;20222;-81
2024/04/04 02:29:43;;;;;;;12.50;1.20;;;10.20;99.90;;;;;;5019457;28;20171;-81
2024/04/04 02:32:10;;;;;;;13.60;1.30;;;10.20;99.90;;;;;;5019316;28;20214;-81
2024/04/04 02:34:35;;;;;;;12.80;1.50;;;10.20;99.90;;;;;;5019225;28;20666;-81
2024/04/04 02:37:01;;;;;;;13.47;1.37;;;10.30;99.90;;;;;;5018892;28;20253;-81
2024/04/04 02:39:28;;;;;;;17.27;1.90;;;10.30;99.90;;;;;;5019118;28;20655;-81
2024/04/04 02:41:54;;;;;;;12.85;1.50;;;10.30;99.90;;;;;;5019069;28;20236;-81
2024/04/04 02:44:20;;;;;;;12.40;1.40;;;10.40;99.90;;;;;;5019149;28;20640;-81
2024/04/04 02:46:48;;;;;;;13.50;1.40;;;10.40;99.90;;;;;;5001716;28;20453;-81
2024/04/04 02:49:14;;;;;;;12.65;1.33;;;10.40;99.90;;;;;;5001121;28;20437;-81
2024/04/04 02:51:39;;;;;;;16.50;3.80;;;10.40;99.90;;;;;;5018531;28;20190;-81
2024/04/04 02:54:05;;;;;;;12.33;1.30;;;10.50;99.90;;;;;;5001211;28;20660;-81
2024/04/04 02:56:31;;;;;;;12.97;1.30;;;10.60;99.90;;;;;;5019255;28;20531;-81
2024/04/04 02:58:56;;;;;;;12.80;1.13;;;10.70;99.90;;;;;;5018425;28;20166;-81
2024/04/04 03:01:23;;;;;;;14.33;1.93;;;10.70;99.90;;;;;;5000687;28;20197;-81
2024/04/04 03:03:48;;;;;;;12.82;1.13;;;10.80;99.90;;;;;;5000720;28;20175;-80
2024/04/04 03:06:20;;;;;;;12.97;1.20;;;10.80;99.90;;;;;;5018014;28;20163;-80
2024/04/04 03:08:46;;;;;;;13.13;1.35;;;10.90;99.90;;;;;;5018001;28;20402;-80
2024/04/04 03:11:13;;;;;;;12.90;1.58;;;10.90;99.90;;;;;;5017737;28;20548;-80
2024/04/04 03:13:39;;;;;;;14.00;1.60;;;10.90;99.90;;;;;;5000664;28;20171;-80
2024/04/04 03:16:07;;;;;;;12.80;1.35;;;11.00;99.90;;;;;;5000538;28;20187;-81
2024/04/04 03:18:34;;;;;;;16.95;1.30;;;11.00;99.90;;;;;;5017837;28;20155;-80
2024/04/04 03:20:59;;;;;;;11.98;0.90;;;11.00;99.90;;;;;;5017923;28;20246;-80
2024/04/04 03:23:25;;;;;;;12.80;1.47;;;11.10;99.90;;;;;;5018484;28;20205;-81
2024/04/04 03:25:51;;;;;;;12.33;1.10;;;11.10;99.90;;;;;;5017381;28;20182;-80
2024/04/04 03:28:16;;;;;;;11.98;1.00;;;11.20;99.90;;;;;;5017790;28;20187;-80
2024/04/04 03:30:42;;;;;;;12.50;1.40;;;11.20;99.90;;;;;;5017469;28;20247;-81
2024/04/04 03:33:08;;;;;;;12.00;1.10;;;11.20;99.90;;;;;;5018323;28;20191;-80
2024/04/04 03:35:38;;;;;;;15.50;1.50;;;11.30;99.90;;;;;;5017610;28;20194;-80
2024/04/04 03:38:04;;;;;;;17.73;1.65;;;11.30;99.90;;;;;;5000363;28;20159;-81
2024/04/04 03:40:33;;;;;;;13.00;1.20;;;11.30;99.90;;;;;;5017736;28;20221;-80
2024/04/04 03:43:01;;;;;;;13.60;1.40;;;11.30;99.90;;;;;;5017575;28;20189;-80
2024/04/04 03:45:27;;;;;;;12.50;1.20;;;11.30;99.90;;;;;;5017321;28;20636;-80
2024/04/04 03:47:53;;;;;;;14.50;1.00;;;11.30;99.90;;;;;;5017429;28;20209;-80
2024/04/04 03:50:18;;;;;;;18.33;1.27;;;11.20;99.90;;;;;;5017154;28;20173;-81
2024/04/04 03:52:44;;;;;;;16.43;1.10;;;11.30;99.90;;;;;;5016971;28;20567;-81
2024/04/04 03:55:10;;;;;;;13.20;1.17;;;11.20;99.90;;;;;;5017887;28;20193;-81
2024/04/04 03:57:35;;;;;;;12.53;1.20;;;11.20;99.90;;;;;;5017261;28;20170;-81
2024/04/04 04:00:03;;;;;;;12.90;1.57;;;11.20;99.90;;;;;;5017265;28;20178;-81
2024/04/04 04:02:28;;;;;;;15.02;1.20;;;11.20;99.90;;;;;;4999353;28;20199;-81
2024/04/04 04:04:54;;;;;;;12.40;1.10;;;11.10;99.90;;;;;;4999972;28;20643;-81
2024/04/04 04:07:20;;;;;;;15.27;1.80;;;11.20;99.90;;;;;;4999547;28;20241;-81
2024/04/04 04:09:45;;;;;;;12.60;1.33;;;11.20;99.90;;;;;;5017219;28;20158;-81
2024/04/04 04:12:11;;;;;;;12.70;1.17;;;11.10;99.90;;;;;;4999466;28;20513;-81
2024/04/04 04:14:37;;;;;;;13.57;1.50;;;11.20;99.90;;;;;;5017188;28;20158;-81
2024/04/04 04:17:04;;;;;;;12.53;1.20;;;11.20;99.90;;;;;;5016960;28;20182;-81
2024/04/04 04:19:31;;;;;;;13.50;1.27;;;11.20;99.90;;;;;;5000014;28;20210;-81
2024/04/04 04:21:56;;;;;;;12.03;1.00;;;11.20;99.90;;;;;;4999780;28;20198;-81
2024/04/04 04:24:22;;;;;;;13.57;1.30;;;11.20;99.90;;;;;;5017077;28;20169;-81
2024/04/04 04:26:49;;;;;;;12.70;1.67;;;11.30;99.90;;;;;;5017147;28;20195;-81
2024/04/04 04:29:17;;;;;;;12.80;1.13;;;11.30;99.90;;;;;;4999715;28;20189;-81
2024/04/04 04:31:43;;;;;;;12.15;1.00;;;11.30;99.90;;;;;;5016991;28;20269;-81
2024/04/04 04:34:09;;;;;;;11.97;0.83;;;11.30;99.90;;;;;;5016680;28;20197;-81
2024/04/04 04:36:46;;;;;;;13.33;0.90;;;11.30;99.90;;;;;;4999330;28;20409;-81
2024/04/04 04:39:14;;;;;;;11.90;0.80;;;11.40;99.90;;;;;;5000057;28;20523;-81
2024/04/04 04:41:41;;;;;;;12.73;0.95;;;11.50;99.90;;;;;;4998941;28;20187;-81
2024/04/04 04:44:07;;;;;;;12.90;1.00;;;11.40;99.90;;;;;;5016771;28;20163;-80
2024/04/04 04:46:32;;;;;;;14.43;1.17;;;11.50;99.90;;;;;;5017032;28;20715;-81
2024/04/04 04:48:58;;;;;;;12.13;0.90;;;11.50;99.90;;;;;;5016748;28;20212;-81
2024/04/04 04:51:23;;;;;;;12.40;1.03;;;11.50;99.90;;;;;;5016367;28;20205;-81
2024/04/04 04:53:49;;;;;;;13.90;1.23;;;11.60;99.90;;;;;;5016235;28;20167;-81
2024/04/04 04:56:15;;;;;;;12.20;0.73;;;11.60;99.90;;;;;;5016147;28;20706;-81
2024/04/04 04:58:40;;;;;;;12.30;0.93;;;11.60;99.90;;;;;;4998470;28;20273;-81
2024/04/04 05:01:10;;;;;;;11.77;0.80;;;11.60;99.90;;;;;;5016140;28;20906;-81
2024/04/04 05:03:36;;;;;;;12.63;1.00;;;11.60;99.90;;;;;;4998371;28;20600;-81
2024/04/04 05:06:02;;;;;;;11.80;0.90;;;11.70;99.90;;;;;;4998502;28;20210;-81
2024/04/04 05:08:27;;;;;;;11.90;0.90;;;11.70;99.90;;;;;;5016089;28;20218;-81
2024/04/04 05:10:53;;;;;;;11.83;0.80;;;11.70;99.90;;;;;;5015922;28;20656;-81
2024/04/04 05:13:18;;;;;;;11.77;0.70;;;11.70;99.90;;;;;;4998816;28;20253;-81
2024/04/04 05:18:23;;;;;;;11.98;0.85;;;11.80;99.90;;;;;;5098701;22;20226;-84
2024/04/04 05:20:57;;;;;;;13.55;0.85;;;11.80;99.90;;;;;;5036090;28;20181;-84
2024/04/04 05:23:28;;;;;;;11.90;0.90;;;11.90;99.90;;;;;;5018224;28;20161;-84
2024/04/04 05:25:57;;;;;;;12.40;0.95;;;11.80;99.90;;;;;;5018095;28;20527;-84
2024/04/04 05:28:26;;;;;;;12.30;1.00;;;11.90;99.90;;;;;;5035946;28;20614;-84
2024/04/04 05:30:55;;;;;;;12.35;1.30;;;11.90;99.90;;;;;;5034830;28;20146;-82
2024/04/04 05:33:24;;;;;;;11.75;0.80;;;11.90;99.90;;;;;;5033846;28;20174;-82
2024/04/04 05:35:50;;;;;;;11.80;0.77;;;11.90;99.90;;;;;;5017119;28;20174;-84
2024/04/04 05:38:19;;;;;;;12.18;0.82;;;11.90;99.90;;;;;;5034395;28;20188;-83
2024/04/04 05:40:45;;;;;;;12.05;0.90;;;11.90;99.90;;;;;;5033488;28;20166;-83
2024/04/04 05:43:10;;;;;;;13.03;0.97;;;11.90;99.90;;;;;;5033806;28;20184;-83
2024/04/04 05:45:37;;;;;;;13.80;1.07;;;11.90;99.90;;;;;;5034351;28;20169;-82
2024/04/04 05:48:03;;;;;;;16.30;1.00;;;11.90;99.90;;;;;;5033970;28;20284;-84
2024/04/04 05:50:31;;;;;;;13.10;1.10;;;12.00;99.90;;;;;;5033846;28;20181;-81
2024/04/04 05:52:57;;;;;;;14.30;1.20;;;12.00;99.90;;;;;;5037185;28;20835;-81
2024/04/04 05:55:22;;;;;;;12.50;0.90;;;12.00;99.90;;;;;;5041203;28;20170;-81
2024/04/04 05:57:49;;;;;;;12.20;0.90;;;12.00;99.90;;;;;;5041013;28;20661;-81
2024/04/04 06:00:15;;;;;;;12.50;1.00;;;12.10;99.90;;;;;;5041482;28;20508;-81
2024/04/04 06:02:44;;;;;;;13.50;1.23;;;12.10;99.90;;;;;;5040703;28;20227;-81
2024/04/04 06:05:10;;;;;;;14.07;1.90;;;12.10;99.90;;;;;;5040505;28;20244;-81
2024/04/04 06:07:36;;;;;;;13.37;1.30;;;12.10;99.90;;;;;;5040576;28;20272;-81
2024/04/04 06:10:05;;;;;;;14.87;1.17;;;12.10;99.90;;;;;;5040609;28;20252;-81
2024/04/04 06:12:33;;;;;;;13.70;1.30;;;12.00;99.90;;;;;;5040418;28;20256;-84
2024/04/04 06:14:59;;;;;;;13.90;1.00;;;12.00;99.90;;;;;;5022194;28;20165;-83
2024/04/04 06:17:25;;;;;;;14.93;1.10;;;12.00;99.90;;;;;;5040531;28;20196;-83
2024/04/04 06:19:50;;;;;;;15.23;1.30;;;12.00;99.90;;;;;;5022341;28;20173;-84
2024/04/04 06:22:16;;;;;;;15.87;1.10;;;12.00;99.90;;;;;;5039577;28;20265;-83
2024/04/04 06:24:43;;;;;;;12.70;1.07;;;12.00;99.90;;;;;;5039675;28;20710;-83
2024/04/04 06:27:10;;;;;;;12.90;1.00;;;12.00;99.90;;;;;;5040844;28;20185;-83
2024/04/04 06:29:35;;;;;;;15.23;1.20;;;12.00;99.90;;;;;;5040652;28;20168;-83
2024/04/04 06:32:04;;;;;;;15.10;1.40;;;12.00;99.90;;;;;;5022109;28;20280;-83
2024/04/04 06:34:30;;;;;;;13.57;1.13;;;12.00;99.90;;;;;;5039664;28;20655;-83
2024/04/04 06:36:55;;;;;;;12.45;1.20;;;12.00;99.90;;;;;;5041021;28;20162;-83
2024/04/04 06:39:21;;;;;;;14.53;1.17;;;12.00;99.90;;;;;;5040268;28;20191;-83
2024/04/04 06:41:47;;;;;;;12.80;1.00;;;12.00;99.90;;;;;;5040640;28;20186;-83
2024/04/04 06:44:12;;;;;;;15.60;1.30;;;12.00;99.90;;;;;;5022297;28;20177;-83
2024/04/04 06:46:41;;;;;;;12.10;0.93;;;12.00;99.90;;;;;;5039807;28;20657;-83
2024/04/04 06:49:07;;;;;;;14.98;1.20;;;12.10;99.90;;;;;;5039692;28;20200;-83
2024/04/04 06:51:32;;;;;;;11.77;0.80;;;12.10;99.90;;;;;;5039424;28;20714;-82
2024/04/04 06:53:58;;;;;;;12.90;1.10;;;12.20;99.90;;;;;;5040006;28;20172;-83
2024/04/04 06:56:24;;;;;;;12.33;1.00;;;12.10;99.90;;;;;;5039585;28;20528;-83
2024/04/04 06:58:52;;;;;;;12.80;1.40;;;12.20;99.90;;;;;;5039833;28;20212;-83
2024/04/04 07:01:21;;;;;;;14.13;1.20;;;12.10;99.90;;;;;;5040152;28;20196;-83
2024/04/04 07:03:47;;;;;;;12.38;1.00;;;12.20;99.90;;;;;;5038466;28;20216;-83
2024/04/04 07:06:12;;;;;;;14.33;1.23;;;12.20;99.90;;;;;;5001687;28;20170;-83
2024/04/04 07:08:40;;;;;;;12.07;1.00;;;12.20;99.90;;;;;;5036292;28;20186;-81
2024/04/04 07:11:05;;;;;;;13.32;1.35;;;12.20;99.90;;;;;;5036239;28;20172;-80
2024/04/04 07:13:35;;;;;;;14.20;1.10;;;12.20;99.90;;;;;;5037153;28;20256;-80
2024/04/04 07:16:06;;;;;;;14.85;1.55;;;12.20;99.90;;;;;;5036069;28;20165;-80
2024/04/04 07:18:32;;;;;;;13.43;1.45;;;12.20;99.90;;;;;;5018824;28;20178;-80
2024/04/04 07:20:58;;;;;;;14.50;1.27;;;12.20;99.90;;;;;;5035825;28;20177;-80
2024/04/04 07:23:24;;;;;;;12.80;0.97;;;12.20;99.90;;;;;;5036626;28;20166;-80
2024/04/04 07:25:51;;;;;;;15.23;1.00;;;12.30;99.90;;;;;;5035834;28;20413;-81
2024/04/04 07:28:17;;;;;;;12.50;1.23;;;12.30;99.90;;;;;;5017955;28;20671;-81
2024/04/04 07:30:42;;;;;;;15.27;1.17;;;12.30;99.90;;;;;;5018305;28;20181;-80
2024/04/04 07:33:08;;;;;;;13.03;1.10;;;12.30;99.90;;;;;;5036119;28;20186;-80
2024/04/04 07:35:34;;;;;;;12.03;0.80;;;12.30;99.90;;;;;;5035799;28;20650;-81
2024/04/04 07:38:00;;;;;;;12.70;0.83;;;12.30;99.90;;;;;;5036265;28;20408;-80
2024/04/04 07:40:26;;;;;;;14.90;1.07;;;12.30;99.90;;;;;;5017802;28;20674;-80
2024/04/04 07:42:53;;;;;;;12.67;1.00;;;12.40;99.90;;;;;;5035604;28;20186;-80
2024/04/04 07:45:19;;;;;;;13.07;1.00;;;12.40;99.90;;;;;;5036357;28;20952;-80
2024/04/04 07:47:45;;;;;;;13.73;1.27;;;12.40;99.90;;;;;;5035497;28;20448;-80
2024/04/04 07:50:14;;;;;;;12.50;0.83;;;12.40;99.90;;;;;;5035830;28;20204;-81
2024/04/04 07:52:40;;;;;;;14.55;1.00;;;12.40;99.90;;;;;;5036003;28;20196;-80
2024/04/04 07:55:06;;;;;;;15.77;1.10;;;12.50;99.90;;;;;;5035721;28;20519;-80
2024/04/04 07:57:32;;;;;;;13.00;1.00;;;12.50;99.90;;;;;;5035526;28;20546;-80
2024/04/04 07:59:57;;;;;;;14.03;0.80;;;12.50;99.90;;;;;;5035596;28;20577;-80
2024/04/04 08:02:26;;;;;;;14.87;1.20;;;12.50;99.90;;;;;;5035685;28;20551;-80
2024/04/04 08:04:52;;;;;;;12.27;0.85;;;12.50;99.90;;;;;;5036323;28;20632;-80
2024/04/04 08:07:18;;;;;;;12.07;0.73;;;12.60;99.90;;;;;;5017793;28;20221;-80
2024/04/04 08:09:43;;;;;;;12.93;1.33;;;12.50;99.90;;;;;;5017785;28;20491;-80
2024/04/04 08:12:09;;;;;;;12.60;1.00;;;12.50;99.90;;;;;;5034851;28;20193;-79
2024/04/04 08:14:36;;;;;;;12.60;0.90;;;12.60;99.90;;;;;;5035174;28;20165;-80
2024/04/04 08:17:05;;;;;;;11.90;0.75;;;12.70;99.90;;;;;;5035561;28;20188;-81
2024/04/04 08:19:31;;;;;;;11.93;0.90;;;12.70;99.90;;;;;;5036185;28;20528;-81
2024/04/04 08:21:57;;;;;;;12.02;0.70;;;12.60;99.90;;;;;;5036135;28;20190;-81
2024/04/04 08:24:23;;;;;;;11.80;0.73;;;12.60;99.90;;;;;;5035600;28;20692;-81
2024/04/04 08:26:49;;;;;;;11.80;0.70;;;12.60;99.90;;;;;;5035805;28;20475;-82
2024/04/04 08:29:14;;;;;;;13.63;0.70;;;12.50;99.90;;;;;;5035846;28;20412;-81
2024/04/04 08:31:40;;;;;;;11.77;0.70;;;12.40;99.90;;;;;;5036026;28;20424;-82
2024/04/04 08:34:06;;;;;;;16.60;0.80;;;12.40;99.90;;;;;;5035536;28;20177;-82
2024/04/04 08:36:34;;;;;;;12.27;0.67;;;12.40;99.90;;;;;;5036994;28;20488;-82
2024/04/04 08:39:01;;;;;;;12.60;0.80;;;12.40;99.90;;;;;;5019244;28;20166;-82
2024/04/04 08:41:27;;;;;;;11.68;0.60;;;12.40;99.90;;;;;;5018553;28;20194;-83
2024/04/04 08:43:56;;;;;;;11.75;0.70;;;12.40;99.90;;;;;;5036054;28;20184;-82
2024/04/04 08:46:22;;;;;;;12.07;0.68;;;12.40;99.90;;;;;;5018875;28;20176;-82
2024/04/04 08:48:54;;;;;;;11.50;0.60;;;12.50;99.90;;;;;;5035385;28;20559;-82
2024/04/04 08:51:20;;;;;;;15.60;0.75;;;12.50;99.90;;;;;;5038081;28;20432;-82
2024/04/04 08:53:45;;;;;;;11.53;0.50;;;12.50;99.90;;;;;;5039122;28;20165;-83
2024/04/04 08:56:11;;;;;;;11.63;0.70;;;12.60;99.90;;;;;;5039972;28;20161;-82
2024/04/04 08:58:37;;;;;;;13.03;0.70;;;12.70;99.90;;;;;;5021697;28;20193;-83
2024/04/04 09:01:04;;;;;;;11.67;0.73;;;12.70;99.90;;;;;;5039857;28;20174;-82
2024/04/04 09:03:29;;;;;;;11.45;0.60;;;12.90;99.90;;;;;;5021540;28;20202;-82
2024/04/04 09:05:55;;;;;;;12.40;0.87;;;12.90;99.90;;;;;;5039519;28;20180;-82
2024/04/04 09:08:21;;;;;;;11.83;0.70;;;13.00;99.90;;;;;;5039443;28;20444;-82
2024/04/04 09:10:48;;;;;;;11.67;0.60;;;13.10;99.90;;;;;;5039812;28;20405;-83
2024/04/04 09:13:15;;;;;;;13.55;0.80;;;13.20;99.90;;;;;;5040274;28;20166;-82
2024/04/04 09:15:41;;;;;;;11.90;0.73;;;13.20;99.90;;;;;;5023058;28;20193;-82
2024/04/04 09:18:11;;;;;;;11.97;0.70;;;13.10;99.90;;;;;;5040815;28;20189;-82
2024/04/04 09:20:39;;;;;;;11.85;0.60;;;13.00;99.90;;;;;;5022424;28;20413;-83
2024/04/04 09:23:09;;;;;;;11.75;0.70;;;13.00;99.90;;;;;;5023322;28;20644;-82
2024/04/04 09:25:35;;;;;;;13.35;0.80;;;13.00;99.90;;;;;;5040512;28;20281;-82
2024/04/04 09:28:08;;;;;;;14.15;0.60;;;13.10;99.90;;;;;;5039301;28;20228;-83
2024/04/04 09:30:35;;;;;;;11.80;0.90;;;13.20;99.90;;;;;;5040469;28;20630;-82
2024/04/04 09:33:03;;;;;;;11.55;0.63;;;13.40;99.90;;;;;;5021674;28;20500;-82
2024/04/04 09:35:30;;;;;;;11.65;0.70;;;13.50;99.90;;;;;;5040263;28;20631;-82
2024/04/04 09:37:59;;;;;;;12.17;1.00;;;13.70;99.90;;;;;;5037254;28;20673;-82
2024/04/04 09:40:27;;;;;;;11.55;0.60;;;13.80;99.90;;;;;;5017089;28;20496;-82
2024/04/04 09:42:57;;;;;;;12.30;0.70;;;14.00;99.90;;;;;;5034959;28;20243;-82
2024/04/04 09:45:25;;;;;;;11.73;0.73;;;14.00;99.90;;;;;;5034509;28;20817;-83
2024/04/04 09:47:51;;;;;;;11.53;0.70;;;14.20;99.90;;;;;;5034842;28;20451;-83
2024/04/04 09:50:18;;;;;;;12.80;0.70;;;14.20;99.90;;;;;;5017179;28;20936;-82
2024/04/04 09:52:45;;;;;;;13.33;0.77;;;14.30;99.90;;;;;;5034412;28;20217;-82
2024/04/04 09:55:14;;;;;;;12.13;0.80;;;14.30;99.90;;;;;;5034000;28;20405;-82
2024/04/04 09:57:40;;;;;;;12.50;0.70;;;14.50;99.90;;;;;;5016007;28;20416;-82
2024/04/04 10:00:14;;;;;;;11.60;0.60;;;14.50;99.90;;;;;;5033772;28;20759;-82
2024/04/04 10:03:00;;;;;;;12.20;0.63;;;14.60;99.90;;;;;;5033985;28;20817;-82
2024/04/04 10:05:35;;;;;;;12.50;0.70;;;14.70;99.90;;;;;;5016749;28;20409;-82
2024/04/04 10:08:14;;;;;;;13.20;1.27;;;14.70;99.90;;;;;;5034817;28;20446;-82
2024/04/04 10:10:41;;;;;;;12.27;0.70;;;14.60;99.90;;;;;;5019850;28;20408;-82
2024/04/04 10:13:07;;;;;;;12.03;0.77;;;14.50;99.90;;;;;;5034224;28;20452;-82
2024/04/04 10:15:44;;;;;;;16.40;0.93;;;14.40;99.90;;;;;;5035100;28;20408;-82
2024/04/04 10:18:10;;;;;;;12.80;0.83;;;14.40;97.90;;;;;;5034853;28;20425;-83
2024/04/04 10:20:39;;;;;;;12.00;0.90;;;14.40;84.80;;;;;;5016948;28;20500;-82
2024/04/04 10:23:05;;;;;;;12.20;0.90;;;14.40;71.50;;;;;;5017115;28;20439;-83
2024/04/04 10:25:37;;;;;;;13.50;2.00;;;14.50;53.10;;;;;;5023421;28;20941;-83
2024/04/04 10:28:04;;;;;;;17.97;0.87;;;14.50;49.90;;;;;;5043072;28;20458;-83
2024/04/04 10:30:37;;;;;;;11.87;0.80;;;14.50;56.90;;;;;;5026165;28;20420;-83
2024/04/04 10:33:13;;;;;;;11.97;0.70;;;14.50;52.70;;;;;;5044570;28;20490;-84
2024/04/04 10:35:40;;;;;;;12.40;0.70;;;14.70;43.70;;;;;;5044844;28;20381;-84
2024/04/04 10:38:12;;;;;;;12.10;0.90;;;14.70;29.70;;;;;;5044298;28;20584;-84
2024/04/04 10:40:38;;;;;;;11.90;0.70;;;14.70;35.80;;;;;;5047627;28;20417;-84
2024/04/04 10:43:07;;;;;;;15.57;1.10;;;14.60;39.00;;;;;;5047316;28;20498;-84
2024/04/04 10:45:34;;;;;;;15.57;1.00;;;14.60;21.90;;;;;;5048849;28;20418;-84
2024/04/04 10:48:00;;;;;;;12.03;0.83;;;14.60;26.90;;;;;;5031227;28;20460;-84
2024/04/04 10:50:30;;;;;;;14.70;0.90;;;14.60;22.20;;;;;;5048263;28;20775;-84
2024/04/04 10:52:57;;;;;;;13.00;0.80;;;14.60;28.40;;;;;;5046976;28;20432;-83
2024/04/04 10:55:25;;;;;;;12.50;1.00;;;14.60;14.50;;;;;;5049247;28;20406;-84
2024/04/04 10:57:52;;;;;;;11.80;0.70;;;14.70;25.30;;;;;;5047057;28;20432;-83
2024/04/04 11:00:26;;;;;;;12.07;0.80;;;14.80;22.40;;;;;;5047521;28;20416;-84
2024/04/04 11:02:52;;;;;;;12.40;0.80;;;14.90;7.10;;;;;;5048367;28;20493;-83
2024/04/04 11:05:19;;;;;;;14.60;1.00;;;14.90;3.10;;;;;;5047849;28;20409;-84
2024/04/04 11:07:46;;;;;;;12.03;0.80;;;14.90;1.00;;;;;;5049051;28;20502;-84
2024/04/04 11:10:15;;;;;;;12.70;0.90;;;14.80;1.00;;;;;;5047614;28;20420;-83
2024/04/04 11:12:43;;;;;;;17.17;0.80;;;14.80;18.40;;;;;;5010469;28;20519;-83
2024/04/04 11:15:10;;;;;;;12.07;0.90;;;14.80;12.90;;;;;;5038265;28;20499;-83
2024/04/04 11:17:37;;;;;;;12.53;0.87;;;14.70;8.50;;;;;;5023995;23;20496;-83
2024/04/04 11:20:04;;;;;;;12.80;1.00;;;14.80;1.00;;;;;;5018721;28;20398;-83
2024/04/04 11:22:34;;;;;;;13.30;1.03;;;14.80;1.00;;;;;;5000434;28;20981;-81
2024/04/04 11:25:00;;;;;;;15.60;2.00;;;14.90;1.00;;;;;;5018537;28;20786;-82
2024/04/04 11:27:26;;;;;;;12.40;0.87;;;14.90;3.90;;;;;;5018455;28;20440;-81
2024/04/04 11:29:52;;;;;;;13.50;1.10;;;14.90;1.00;;;;;;5019003;28;20902;-83
2024/04/04 11:32:17;;;;;;;12.37;0.70;;;14.80;21.70;;;;;;5017852;28;20189;-83
2024/04/04 11:34:43;;;;;;;15.17;0.80;;;14.80;45.00;;;;;;4999733;28;20181;-81
2024/04/04 11:37:09;;;;;;;13.63;1.20;;;14.70;60.60;;;;;;5018126;28;20567;-84
2024/04/04 11:39:35;;;;;;;13.23;0.87;;;14.60;83.70;;;;;;5003345;28;20262;-85
2024/04/04 11:42:01;;;;;;;12.10;0.80;;;14.00;57.90;;;;;;5020019;28;20422;-85
2024/04/04 11:44:29;;;;;;;11.87;0.70;;;13.70;81.50;;;;;;5021454;28;20406;-86
2024/04/04 11:46:56;;;;;;;11.97;0.70;;;13.30;72.70;;;;;;5003646;28;20198;-86
2024/04/04 11:49:24;;;;;;;11.93;0.70;;;13.00;90.30;;;;;;5020937;28;20401;-86
2024/04/04 11:51:52;;;;;;;12.25;0.77;;;12.80;94.80;;;;;;5020406;28;20418;-86
2024/04/04 11:54:18;;;;;;;12.15;0.70;;;12.60;99.90;;;;;;5020085;28;20182;-86
2024/04/04 11:56:44;;;;;;;11.90;0.70;;;12.60;99.90;;;;;;5020649;28;20579;-84
2024/04/04 11:59:11;;;;;;;12.40;0.80;;;12.40;99.90;;;;;;5017581;28;20169;-85
2024/04/04 12:01:37;;;;;;;12.60;0.98;;;12.30;99.90;;;;;;5017341;28;20471;-84
2024/04/04 12:04:03;;;;;;;12.38;0.90;;;12.30;99.90;;;;;;4999739;28;20253;-84
2024/04/04 12:06:29;;;;;;;14.83;0.90;;;12.40;99.90;;;;;;5016913;28;20190;-84
2024/04/04 12:08:55;;;;;;;12.50;0.73;;;12.50;99.90;;;;;;5016962;28;20532;-84
2024/04/04 12:11:20;;;;;;;14.13;0.93;;;12.40;99.90;;;;;;4998928;28;20499;-84
2024/04/04 12:13:46;;;;;;;12.03;0.70;;;12.40;99.90;;;;;;4999482;28;20199;-84
2024/04/04 12:16:12;;;;;;;12.27;0.80;;;12.50;99.90;;;;;;5000822;28;20219;-85
2024/04/04 12:21:22;;;;;;;11.98;0.80;;;12.30;99.90;;;;;;5017184;28;20460;-83
2024/04/04 12:23:48;;;;;;;12.20;0.90;;;12.20;99.90;;;;;;5016653;28;20632;-84
2024/04/04 12:26:14;;;;;;;13.53;1.10;;;12.30;99.90;;;;;;5018525;28;20189;-85
2024/04/04 12:28:41;;;;;;;11.93;0.70;;;12.30;99.90;;;;;;5004820;28;20194;-86
2024/04/04 12:31:08;;;;;;;11.77;0.73;;;12.30;99.90;;;;;;5021950;28;20178;-84
2024/04/04 12:33:40;;;;;;;12.95;0.90;;;12.20;99.90;;;;;;5002778;28;20261;-85
2024/04/04 12:36:13;;;;;;;13.05;0.85;;;12.20;99.90;;;;;;5020257;28;20147;-86
2024/04/04 12:38:42;;;;;;;12.80;0.95;;;12.10;99.90;;;;;;5002955;28;20163;-86
2024/04/04 12:41:27;;;;;;;;;;;;;;;;;;;;;